Últimos artigos:
MSK144, FT8… using an IC-9700 and WSJT-X
Resolvendo um problema de áudio no GNU Radio
Converter um número Real para o formato binário em vírgula flutuante segundo a Norma IEEE-754
VirtualBox sobre Debian 10 (buster) não encontra dispositivos USB
Falta de som no Morse Runner em Linux?
Touchpad tapping, em Debian Buster (10)
Últimas fotos:
Últimos METARs:
LPAZ 110700Z 34010KT 9999 FEW021 BKN040 21...
LPFR 110700Z 02004KT CAVOK 19/14 Q1015=
LPHR 110700Z 01005KT 9999 FEW020 20/17 Q10...
LPLA 110700Z /////KT 9999 FEW022 BKN038 22...
LPMA 110700Z 34007KT 310V010 9999 FEW015 2...
LPPD 110700Z 36005KT 9999 FEW022 SCT040 20...
LPPR 110700Z VRB01KT 9999 4500N FEW005 18/...
LPPS 110700Z 33006KT 9999 SCT015 SCT030 21...
LPPT 110700Z VRB02KT 9999 FEW006 BKN028 19...
Últimos QSOs:
2022/08/06-20:45 6m CT1ILT (FILIPE)
2022/08/05-09:40 2m CT2HKN (MG)
2022/08/05-09:37 2m CT1HIX/P ((GOMES))
2022/08/05-09:36 2m CT1MH/P (FRANCISCO)
2022/08/05-09:35 2m CT2HOV/P (NUNO)
2022/08/04-16:57 2m EA8ARI (RAFA)
  UTC
Rpi-6 CPU Temp: 0.0 °C (19Z)
IN51oq 2314Z /////KT //// 28/17 Q1013=
309591